sensor_id;sensor_type;location;lat;lon;timestamp;P1;durP1;ratioP1;P2;durP2;ratioP2
12412;SDS011;13877;18.896;-99.222;2022-07-23T00:01:25;14.63;;;6.00;;
12412;SDS011;13877;18.896;-99.222;2022-07-23T00:03:53;18.40;;;6.15;;
12412;SDS011;13877;18.896;-99.222;2022-07-23T00:06:21;13.52;;;6.18;;
12412;SDS011;13877;18.896;-99.222;2022-07-23T00:08:49;19.05;;;6.07;;
12412;SDS011;13877;18.896;-99.222;2022-07-23T00:11:16;9.35;;;5.80;;
12412;SDS011;13877;18.896;-99.222;2022-07-23T00:13:43;17.70;;;6.38;;
12412;SDS011;13877;18.896;-99.222;2022-07-23T00:16:10;13.02;;;5.60;;
12412;SDS011;13877;18.896;-99.222;2022-07-23T00:18:37;14.32;;;6.05;;
12412;SDS011;13877;18.896;-99.222;2022-07-23T00:21:04;14.25;;;6.50;;
12412;SDS011;13877;18.896;-99.222;2022-07-23T00:23:31;11.45;;;5.55;;
12412;SDS011;13877;18.896;-99.222;2022-07-23T00:25:58;14.25;;;6.25;;
12412;SDS011;13877;18.896;-99.222;2022-07-23T00:28:25;18.70;;;6.47;;
12412;SDS011;13877;18.896;-99.222;2022-07-23T00:30:52;14.85;;;7.22;;
12412;SDS011;13877;18.896;-99.222;2022-07-23T00:33:19;19.83;;;7.35;;
12412;SDS011;13877;18.896;-99.222;2022-07-23T00:35:46;16.55;;;6.82;;
12412;SDS011;13877;18.896;-99.222;2022-07-23T00:38:13;25.00;;;6.90;;
12412;SDS011;13877;18.896;-99.222;2022-07-23T00:40:40;17.42;;;7.30;;
12412;SDS011;13877;18.896;-99.222;2022-07-23T00:43:07;20.15;;;7.28;;
12412;SDS011;13877;18.896;-99.222;2022-07-23T00:45:34;22.00;;;7.60;;
12412;SDS011;13877;18.896;-99.222;2022-07-23T00:48:02;22.80;;;7.55;;
12412;SDS011;13877;18.896;-99.222;2022-07-23T00:50:29;19.45;;;6.22;;
12412;SDS011;13877;18.896;-99.222;2022-07-23T00:52:56;20.85;;;7.18;;
12412;SDS011;13877;18.896;-99.222;2022-07-23T00:55:24;18.90;;;8.10;;
12412;SDS011;13877;18.896;-99.222;2022-07-23T00:57:51;20.17;;;7.85;;
12412;SDS011;13877;18.896;-99.222;2022-07-23T01:00:21;22.15;;;7.65;;
12412;SDS011;13877;18.896;-99.222;2022-07-23T01:02:48;20.90;;;7.95;;
12412;SDS011;13877;18.896;-99.222;2022-07-23T01:05:16;20.13;;;7.65;;
12412;SDS011;13877;18.896;-99.222;2022-07-23T01:07:51;23.73;;;8.45;;
12412;SDS011;13877;18.896;-99.222;2022-07-23T01:12:57;15.77;;;7.72;;
12412;SDS011;13877;18.896;-99.222;2022-07-23T01:15:32;15.93;;;7.68;;
12412;SDS011;13877;18.896;-99.222;2022-07-23T01:18:00;24.25;;;8.30;;
12412;SDS011;13877;18.896;-99.222;2022-07-23T01:20:29;22.58;;;8.32;;
12412;SDS011;13877;18.896;-99.222;2022-07-23T01:22:57;23.67;;;7.82;;
12412;SDS011;13877;18.896;-99.222;2022-07-23T01:25:24;19.30;;;7.45;;
12412;SDS011;13877;18.896;-99.222;2022-07-23T01:27:55;21.75;;;7.28;;
12412;SDS011;13877;18.896;-99.222;2022-07-23T01:30:23;15.00;;;6.57;;
12412;SDS011;13877;18.896;-99.222;2022-07-23T01:32:50;21.35;;;7.93;;
12412;SDS011;13877;18.896;-99.222;2022-07-23T01:35:18;25.73;;;6.75;;
12412;SDS011;13877;18.896;-99.222;2022-07-23T01:37:46;19.30;;;7.45;;
12412;SDS011;13877;18.896;-99.222;2022-07-23T01:40:13;21.27;;;7.72;;
12412;SDS011;13877;18.896;-99.222;2022-07-23T01:42:40;20.58;;;7.65;;
12412;SDS011;13877;18.896;-99.222;2022-07-23T01:45:08;18.48;;;7.15;;
12412;SDS011;13877;18.896;-99.222;2022-07-23T01:47:37;17.33;;;6.65;;
12412;SDS011;13877;18.896;-99.222;2022-07-23T01:50:04;17.67;;;7.20;;
12412;SDS011;13877;18.896;-99.222;2022-07-23T01:52:43;17.50;;;7.55;;
12412;SDS011;13877;18.896;-99.222;2022-07-23T01:55:10;11.27;;;4.85;;
12412;SDS011;13877;18.896;-99.222;2022-07-23T01:57:41;16.65;;;4.90;;
12412;SDS011;13877;18.896;-99.222;2022-07-23T02:00:10;20.27;;;3.72;;
12412;SDS011;13877;18.896;-99.222;2022-07-23T02:02:45;9.80;;;3.92;;
12412;SDS011;13877;18.896;-99.222;2022-07-23T02:05:12;9.68;;;3.53;;
12412;SDS011;13877;18.896;-99.222;2022-07-23T02:07:39;7.40;;;2.85;;
12412;SDS011;13877;18.896;-99.222;2022-07-23T02:10:06;6.85;;;2.95;;
12412;SDS011;13877;18.896;-99.222;2022-07-23T02:12:33;7.50;;;2.50;;
12412;SDS011;13877;18.896;-99.222;2022-07-23T02:15:00;6.95;;;3.13;;
12412;SDS011;13877;18.896;-99.222;2022-07-23T02:17:27;5.45;;;2.60;;
12412;SDS011;13877;18.896;-99.222;2022-07-23T02:19:54;8.65;;;3.30;;
12412;SDS011;13877;18.896;-99.222;2022-07-23T02:22:21;9.60;;;3.08;;
12412;SDS011;13877;18.896;-99.222;2022-07-23T02:24:48;6.13;;;2.95;;
12412;SDS011;13877;18.896;-99.222;2022-07-23T02:27:15;9.80;;;2.90;;
12412;SDS011;13877;18.896;-99.222;2022-07-23T02:29:43;7.93;;;3.15;;
12412;SDS011;13877;18.896;-99.222;2022-07-23T02:32:10;10.38;;;2.38;;
12412;SDS011;13877;18.896;-99.222;2022-07-23T02:34:37;7.00;;;2.58;;
12412;SDS011;13877;18.896;-99.222;2022-07-23T02:37:04;4.22;;;2.80;;
12412;SDS011;13877;18.896;-99.222;2022-07-23T02:39:31;9.70;;;3.03;;
12412;SDS011;13877;18.896;-99.222;2022-07-23T02:41:58;6.63;;;3.03;;
12412;SDS011;13877;18.896;-99.222;2022-07-23T02:44:25;12.10;;;3.78;;
12412;SDS011;13877;18.896;-99.222;2022-07-23T02:46:53;14.75;;;4.45;;
12412;SDS011;13877;18.896;-99.222;2022-07-23T02:49:20;10.43;;;4.72;;
12412;SDS011;13877;18.896;-99.222;2022-07-23T02:51:49;12.85;;;5.43;;
12412;SDS011;13877;18.896;-99.222;2022-07-23T02:54:17;16.63;;;5.40;;
12412;SDS011;13877;18.896;-99.222;2022-07-23T02:56:44;15.43;;;5.53;;
12412;SDS011;13877;18.896;-99.222;2022-07-23T02:59:11;11.27;;;5.18;;
12412;SDS011;13877;18.896;-99.222;2022-07-23T03:01:38;16.52;;;5.22;;
12412;SDS011;13877;18.896;-99.222;2022-07-23T03:04:06;14.95;;;4.93;;
12412;SDS011;13877;18.896;-99.222;2022-07-23T03:06:33;17.23;;;5.38;;
12412;SDS011;13877;18.896;-99.222;2022-07-23T03:09:00;14.80;;;5.93;;
12412;SDS011;13877;18.896;-99.222;2022-07-23T03:11:27;18.92;;;6.53;;
12412;SDS011;13877;18.896;-99.222;2022-07-23T03:13:53;14.90;;;6.45;;
12412;SDS011;13877;18.896;-99.222;2022-07-23T03:16:20;11.88;;;5.95;;
12412;SDS011;13877;18.896;-99.222;2022-07-23T03:18:49;17.67;;;6.45;;
12412;SDS011;13877;18.896;-99.222;2022-07-23T03:21:16;18.52;;;6.55;;
12412;SDS011;13877;18.896;-99.222;2022-07-23T03:23:43;14.48;;;6.55;;
12412;SDS011;13877;18.896;-99.222;2022-07-23T03:26:10;11.75;;;6.40;;
12412;SDS011;13877;18.896;-99.222;2022-07-23T03:28:37;27.40;;;7.25;;
12412;SDS011;13877;18.896;-99.222;2022-07-23T03:31:04;15.77;;;7.38;;
12412;SDS011;13877;18.896;-99.222;2022-07-23T03:33:31;15.75;;;6.90;;
12412;SDS011;13877;18.896;-99.222;2022-07-23T03:35:58;18.98;;;7.80;;
12412;SDS011;13877;18.896;-99.222;2022-07-23T03:38:28;19.98;;;7.30;;
12412;SDS011;13877;18.896;-99.222;2022-07-23T03:40:55;15.27;;;7.60;;
12412;SDS011;13877;18.896;-99.222;2022-07-23T03:43:22;18.00;;;8.07;;
12412;SDS011;13877;18.896;-99.222;2022-07-23T03:45:51;14.57;;;7.47;;
12412;SDS011;13877;18.896;-99.222;2022-07-23T03:48:19;19.45;;;7.28;;
12412;SDS011;13877;18.896;-99.222;2022-07-23T03:50:45;16.38;;;6.78;;
12412;SDS011;13877;18.896;-99.222;2022-07-23T03:53:13;12.95;;;6.30;;
12412;SDS011;13877;18.896;-99.222;2022-07-23T03:55:39;14.07;;;6.35;;
12412;SDS011;13877;18.896;-99.222;2022-07-23T03:58:07;14.02;;;6.05;;
12412;SDS011;13877;18.896;-99.222;2022-07-23T04:00:34;13.90;;;5.95;;
12412;SDS011;13877;18.896;-99.222;2022-07-23T04:03:02;15.27;;;5.45;;
12412;SDS011;13877;18.896;-99.222;2022-07-23T04:05:29;10.65;;;5.55;;
12412;SDS011;13877;18.896;-99.222;2022-07-23T04:08:05;12.60;;;6.25;;
12412;SDS011;13877;18.896;-99.222;2022-07-23T04:10:33;19.10;;;6.20;;
12412;SDS011;13877;18.896;-99.222;2022-07-23T04:13:02;15.50;;;5.60;;
12412;SDS011;13877;18.896;-99.222;2022-07-23T04:15:28;30.60;;;6.95;;
12412;SDS011;13877;18.896;-99.222;2022-07-23T04:17:55;16.08;;;6.75;;
12412;SDS011;13877;18.896;-99.222;2022-07-23T04:20:28;11.98;;;6.35;;
12412;SDS011;13877;18.896;-99.222;2022-07-23T04:22:59;14.00;;;5.93;;
12412;SDS011;13877;18.896;-99.222;2022-07-23T04:25:26;13.85;;;5.07;;
12412;SDS011;13877;18.896;-99.222;2022-07-23T04:27:53;13.27;;;5.57;;
12412;SDS011;13877;18.896;-99.222;2022-07-23T04:30:21;14.55;;;4.97;;
12412;SDS011;13877;18.896;-99.222;2022-07-23T04:32:48;16.70;;;4.80;;
12412;SDS011;13877;18.896;-99.222;2022-07-23T04:35:21;11.88;;;5.03;;
12412;SDS011;13877;18.896;-99.222;2022-07-23T04:37:58;15.00;;;5.22;;
12412;SDS011;13877;18.896;-99.222;2022-07-23T04:40:26;17.70;;;5.32;;
12412;SDS011;13877;18.896;-99.222;2022-07-23T04:42:53;14.15;;;4.85;;
12412;SDS011;13877;18.896;-99.222;2022-07-23T04:45:21;14.10;;;4.90;;
12412;SDS011;13877;18.896;-99.222;2022-07-23T04:47:49;10.10;;;4.80;;
12412;SDS011;13877;18.896;-99.222;2022-07-23T04:50:17;22.27;;;4.68;;
12412;SDS011;13877;18.896;-99.222;2022-07-23T04:52:49;14.35;;;4.30;;
12412;SDS011;13877;18.896;-99.222;2022-07-23T04:55:16;11.85;;;4.70;;
12412;SDS011;13877;18.896;-99.222;2022-07-23T04:57:44;13.13;;;4.82;;
12412;SDS011;13877;18.896;-99.222;2022-07-23T05:00:10;15.95;;;4.72;;
12412;SDS011;13877;18.896;-99.222;2022-07-23T05:02:39;7.43;;;4.07;;
12412;SDS011;13877;18.896;-99.222;2022-07-23T05:05:06;13.38;;;4.72;;
12412;SDS011;13877;18.896;-99.222;2022-07-23T05:07:33;18.85;;;4.80;;
12412;SDS011;13877;18.896;-99.222;2022-07-23T05:10:00;17.75;;;4.82;;
12412;SDS011;13877;18.896;-99.222;2022-07-23T05:12:28;8.82;;;4.65;;
12412;SDS011;13877;18.896;-99.222;2022-07-23T05:14:55;13.38;;;4.35;;
12412;SDS011;13877;18.896;-99.222;2022-07-23T05:17:22;19.02;;;4.20;;
12412;SDS011;13877;18.896;-99.222;2022-07-23T05:19:52;17.38;;;4.13;;
12412;SDS011;13877;18.896;-99.222;2022-07-23T05:22:19;10.38;;;4.35;;
12412;SDS011;13877;18.896;-99.222;2022-07-23T05:24:46;16.45;;;4.60;;
12412;SDS011;13877;18.896;-99.222;2022-07-23T05:27:13;14.45;;;4.05;;
12412;SDS011;13877;18.896;-99.222;2022-07-23T05:29:41;15.70;;;4.72;;
12412;SDS011;13877;18.896;-99.222;2022-07-23T05:32:08;13.18;;;4.57;;
12412;SDS011;13877;18.896;-99.222;2022-07-23T05:34:38;12.18;;;4.90;;
12412;SDS011;13877;18.896;-99.222;2022-07-23T05:37:05;14.55;;;4.82;;
12412;SDS011;13877;18.896;-99.222;2022-07-23T05:39:32;19.70;;;4.95;;
12412;SDS011;13877;18.896;-99.222;2022-07-23T05:42:00;14.75;;;4.63;;
12412;SDS011;13877;18.896;-99.222;2022-07-23T05:44:27;10.75;;;5.28;;
12412;SDS011;13877;18.896;-99.222;2022-07-23T05:46:53;17.20;;;5.00;;
12412;SDS011;13877;18.896;-99.222;2022-07-23T05:49:24;19.98;;;4.63;;
12412;SDS011;13877;18.896;-99.222;2022-07-23T05:52:05;12.38;;;5.13;;
12412;SDS011;13877;18.896;-99.222;2022-07-23T05:54:59;11.27;;;5.15;;
12412;SDS011;13877;18.896;-99.222;2022-07-23T05:57:27;15.93;;;4.70;;
12412;SDS011;13877;18.896;-99.222;2022-07-23T05:59:54;12.30;;;5.30;;
12412;SDS011;13877;18.896;-99.222;2022-07-23T06:02:21;12.15;;;5.15;;
12412;SDS011;13877;18.896;-99.222;2022-07-23T06:04:48;15.25;;;5.57;;
12412;SDS011;13877;18.896;-99.222;2022-07-23T06:07:22;13.70;;;4.78;;
12412;SDS011;13877;18.896;-99.222;2022-07-23T06:09:49;12.00;;;4.85;;
12412;SDS011;13877;18.896;-99.222;2022-07-23T06:12:17;12.15;;;5.03;;
12412;SDS011;13877;18.896;-99.222;2022-07-23T06:14:44;21.45;;;5.75;;
12412;SDS011;13877;18.896;-99.222;2022-07-23T06:17:11;13.57;;;5.55;;
12412;SDS011;13877;18.896;-99.222;2022-07-23T06:19:38;20.10;;;5.18;;
12412;SDS011;13877;18.896;-99.222;2022-07-23T06:22:05;16.33;;;5.10;;
12412;SDS011;13877;18.896;-99.222;2022-07-23T06:24:31;16.15;;;4.85;;
12412;SDS011;13877;18.896;-99.222;2022-07-23T06:26:58;11.02;;;4.63;;
12412;SDS011;13877;18.896;-99.222;2022-07-23T06:29:25;15.68;;;4.97;;
12412;SDS011;13877;18.896;-99.222;2022-07-23T06:31:52;15.20;;;5.07;;
12412;SDS011;13877;18.896;-99.222;2022-07-23T06:34:19;13.25;;;4.20;;
12412;SDS011;13877;18.896;-99.222;2022-07-23T06:36:46;13.07;;;4.30;;
12412;SDS011;13877;18.896;-99.222;2022-07-23T06:39:13;10.32;;;4.47;;
12412;SDS011;13877;18.896;-99.222;2022-07-23T06:41:45;14.07;;;3.88;;
12412;SDS011;13877;18.896;-99.222;2022-07-23T06:44:12;10.27;;;4.38;;
12412;SDS011;13877;18.896;-99.222;2022-07-23T06:46:41;14.63;;;4.65;;
12412;SDS011;13877;18.896;-99.222;2022-07-23T06:49:26;13.95;;;4.20;;
12412;SDS011;13877;18.896;-99.222;2022-07-23T06:51:56;9.60;;;4.60;;
12412;SDS011;13877;18.896;-99.222;2022-07-23T06:54:23;9.88;;;4.85;;
12412;SDS011;13877;18.896;-99.222;2022-07-23T06:56:50;8.63;;;4.30;;
12412;SDS011;13877;18.896;-99.222;2022-07-23T06:59:17;18.05;;;3.90;;
12412;SDS011;13877;18.896;-99.222;2022-07-23T07:01:44;12.30;;;4.30;;
12412;SDS011;13877;18.896;-99.222;2022-07-23T07:04:11;16.67;;;4.75;;
12412;SDS011;13877;18.896;-99.222;2022-07-23T07:06:37;12.48;;;4.28;;
12412;SDS011;13877;18.896;-99.222;2022-07-23T07:09:04;10.80;;;3.83;;
12412;SDS011;13877;18.896;-99.222;2022-07-23T07:11:31;10.48;;;3.58;;
12412;SDS011;13877;18.896;-99.222;2022-07-23T07:13:58;9.80;;;3.80;;
12412;SDS011;13877;18.896;-99.222;2022-07-23T07:16:25;16.25;;;4.80;;
12412;SDS011;13877;18.896;-99.222;2022-07-23T07:18:52;10.57;;;3.95;;
12412;SDS011;13877;18.896;-99.222;2022-07-23T07:21:18;7.80;;;3.95;;
12412;SDS011;13877;18.896;-99.222;2022-07-23T07:23:45;11.07;;;3.55;;
12412;SDS011;13877;18.896;-99.222;2022-07-23T07:26:15;9.73;;;4.28;;
12412;SDS011;13877;18.896;-99.222;2022-07-23T07:28:41;8.57;;;4.07;;
12412;SDS011;13877;18.896;-99.222;2022-07-23T07:31:09;13.05;;;4.25;;
12412;SDS011;13877;18.896;-99.222;2022-07-23T07:33:36;11.13;;;4.18;;
12412;SDS011;13877;18.896;-99.222;2022-07-23T07:36:03;13.55;;;4.07;;
12412;SDS011;13877;18.896;-99.222;2022-07-23T07:38:30;10.55;;;4.20;;
12412;SDS011;13877;18.896;-99.222;2022-07-23T07:40:57;11.05;;;4.22;;
12412;SDS011;13877;18.896;-99.222;2022-07-23T07:43:24;12.73;;;4.45;;
12412;SDS011;13877;18.896;-99.222;2022-07-23T07:45:52;8.30;;;4.05;;
12412;SDS011;13877;18.896;-99.222;2022-07-23T07:48:19;9.35;;;4.05;;
12412;SDS011;13877;18.896;-99.222;2022-07-23T07:50:47;16.83;;;4.60;;
12412;SDS011;13877;18.896;-99.222;2022-07-23T07:53:13;11.05;;;4.22;;
12412;SDS011;13877;18.896;-99.222;2022-07-23T07:55:41;8.68;;;4.38;;
12412;SDS011;13877;18.896;-99.222;2022-07-23T07:58:07;9.40;;;4.60;;
12412;SDS011;13877;18.896;-99.222;2022-07-23T08:00:34;10.75;;;4.57;;
12412;SDS011;13877;18.896;-99.222;2022-07-23T08:03:01;10.82;;;4.00;;
12412;SDS011;13877;18.896;-99.222;2022-07-23T08:05:28;10.40;;;4.18;;
12412;SDS011;13877;18.896;-99.222;2022-07-23T08:07:57;13.02;;;4.10;;
12412;SDS011;13877;18.896;-99.222;2022-07-23T08:10:25;11.68;;;4.38;;
12412;SDS011;13877;18.896;-99.222;2022-07-23T08:12:54;12.77;;;4.70;;
12412;SDS011;13877;18.896;-99.222;2022-07-23T08:15:27;13.82;;;5.22;;
12412;SDS011;13877;18.896;-99.222;2022-07-23T08:17:55;13.93;;;5.47;;
12412;SDS011;13877;18.896;-99.222;2022-07-23T08:20:23;18.77;;;5.32;;
12412;SDS011;13877;18.896;-99.222;2022-07-23T08:22:52;20.83;;;5.03;;
12412;SDS011;13877;18.896;-99.222;2022-07-23T08:25:40;19.65;;;5.38;;
12412;SDS011;13877;18.896;-99.222;2022-07-23T08:28:09;14.75;;;4.60;;
12412;SDS011;13877;18.896;-99.222;2022-07-23T08:30:38;9.20;;;4.68;;
12412;SDS011;13877;18.896;-99.222;2022-07-23T08:33:07;12.02;;;4.80;;
12412;SDS011;13877;18.896;-99.222;2022-07-23T08:35:40;13.90;;;4.30;;
12412;SDS011;13877;18.896;-99.222;2022-07-23T08:38:13;11.65;;;4.60;;
12412;SDS011;13877;18.896;-99.222;2022-07-23T08:40:44;16.55;;;4.55;;
12412;SDS011;13877;18.896;-99.222;2022-07-23T08:43:19;12.57;;;4.63;;
12412;SDS011;13877;18.896;-99.222;2022-07-23T08:45:49;13.20;;;4.70;;
12412;SDS011;13877;18.896;-99.222;2022-07-23T08:48:20;11.63;;;4.20;;
12412;SDS011;13877;18.896;-99.222;2022-07-23T08:50:52;14.65;;;4.10;;
12412;SDS011;13877;18.896;-99.222;2022-07-23T08:53:23;16.95;;;4.70;;
12412;SDS011;13877;18.896;-99.222;2022-07-23T08:55:52;12.70;;;4.63;;
12412;SDS011;13877;18.896;-99.222;2022-07-23T08:58:21;13.48;;;4.10;;
12412;SDS011;13877;18.896;-99.222;2022-07-23T09:00:49;9.75;;;3.70;;
12412;SDS011;13877;18.896;-99.222;2022-07-23T09:03:21;11.55;;;4.28;;
12412;SDS011;13877;18.896;-99.222;2022-07-23T09:05:49;14.18;;;4.32;;
12412;SDS011;13877;18.896;-99.222;2022-07-23T09:08:21;12.38;;;4.55;;
12412;SDS011;13877;18.896;-99.222;2022-07-23T09:10:56;16.95;;;4.40;;
12412;SDS011;13877;18.896;-99.222;2022-07-23T09:16:04;13.40;;;5.32;;
12412;SDS011;13877;18.896;-99.222;2022-07-23T09:18:46;17.00;;;5.97;;
12412;SDS011;13877;18.896;-99.222;2022-07-23T09:21:24;14.02;;;6.15;;
12412;SDS011;13877;18.896;-99.222;2022-07-23T09:23:55;13.32;;;6.10;;
12412;SDS011;13877;18.896;-99.222;2022-07-23T09:26:36;15.90;;;6.35;;
12412;SDS011;13877;18.896;-99.222;2022-07-23T09:34:22;19.50;;;6.95;;
12412;SDS011;13877;18.896;-99.222;2022-07-23T09:37:12;22.63;;;7.00;;
12412;SDS011;13877;18.896;-99.222;2022-07-23T09:39:41;13.93;;;6.13;;
12412;SDS011;13877;18.896;-99.222;2022-07-23T09:42:13;13.07;;;6.15;;
12412;SDS011;13877;18.896;-99.222;2022-07-23T09:44:46;14.05;;;7.07;;
12412;SDS011;13877;18.896;-99.222;2022-07-23T09:47:14;20.38;;;7.20;;
12412;SDS011;13877;18.896;-99.222;2022-07-23T09:50:02;15.18;;;6.78;;
12412;SDS011;13877;18.896;-99.222;2022-07-23T09:52:36;27.52;;;7.65;;
12412;SDS011;13877;18.896;-99.222;2022-07-23T09:55:10;17.65;;;7.35;;
12412;SDS011;13877;18.896;-99.222;2022-07-23T09:57:37;17.17;;;7.13;;
12412;SDS011;13877;18.896;-99.222;2022-07-23T10:02:36;17.77;;;6.75;;
12412;SDS011;13877;18.896;-99.222;2022-07-23T10:05:22;20.40;;;6.82;;
12412;SDS011;13877;18.896;-99.222;2022-07-23T10:08:09;18.90;;;6.50;;
12412;SDS011;13877;18.896;-99.222;2022-07-23T10:10:56;25.73;;;7.38;;
12412;SDS011;13877;18.896;-99.222;2022-07-23T10:13:44;14.63;;;6.47;;
12412;SDS011;13877;18.896;-99.222;2022-07-23T10:16:32;22.55;;;7.18;;
12412;SDS011;13877;18.896;-99.222;2022-07-23T10:18:59;19.65;;;7.13;;
12412;SDS011;13877;18.896;-99.222;2022-07-23T10:30:07;19.23;;;6.40;;
12412;SDS011;13877;18.896;-99.222;2022-07-23T10:35:43;13.98;;;6.50;;
12412;SDS011;13877;18.896;-99.222;2022-07-23T10:38:37;19.63;;;6.50;;
12412;SDS011;13877;18.896;-99.222;2022-07-23T10:41:30;14.93;;;7.28;;
12412;SDS011;13877;18.896;-99.222;2022-07-23T10:44:09;21.40;;;6.95;;
12412;SDS011;13877;18.896;-99.222;2022-07-23T10:47:10;19.08;;;6.90;;
12412;SDS011;13877;18.896;-99.222;2022-07-23T10:49:32;23.73;;;7.20;;
12412;SDS011;13877;18.896;-99.222;2022-07-23T10:52:16;19.30;;;6.32;;
12412;SDS011;13877;18.896;-99.222;2022-07-23T10:54:45;14.82;;;6.35;;
12412;SDS011;13877;18.896;-99.222;2022-07-23T10:57:16;14.88;;;5.72;;
12412;SDS011;13877;18.896;-99.222;2022-07-23T11:02:32;17.85;;;6.53;;
12412;SDS011;13877;18.896;-99.222;2022-07-23T11:05:09;20.80;;;6.55;;
12412;SDS011;13877;18.896;-99.222;2022-07-23T11:10:32;11.80;;;5.13;;
12412;SDS011;13877;18.896;-99.222;2022-07-23T11:13:45;16.55;;;6.00;;
12412;SDS011;13877;18.896;-99.222;2022-07-23T11:32:03;15.60;;;6.85;;
12412;SDS011;13877;18.896;-99.222;2022-07-23T11:37:11;19.45;;;7.00;;
12412;SDS011;13877;18.896;-99.222;2022-07-23T11:39:56;15.18;;;6.53;;
12412;SDS011;13877;18.896;-99.222;2022-07-23T11:42:24;21.48;;;6.57;;
12412;SDS011;13877;18.896;-99.222;2022-07-23T11:44:51;15.35;;;5.93;;
12412;SDS011;13877;18.896;-99.222;2022-07-23T11:47:22;10.23;;;5.32;;
12412;SDS011;13877;18.896;-99.222;2022-07-23T11:49:53;13.70;;;5.50;;
12412;SDS011;13877;18.896;-99.222;2022-07-23T11:52:22;15.45;;;5.65;;
12412;SDS011;13877;18.896;-99.222;2022-07-23T11:57:18;14.60;;;5.70;;
12412;SDS011;13877;18.896;-99.222;2022-07-23T11:59:47;19.75;;;6.10;;
12412;SDS011;13877;18.896;-99.222;2022-07-23T12:02:19;14.25;;;6.05;;
12412;SDS011;13877;18.896;-99.222;2022-07-23T12:04:49;18.05;;;6.97;;
12412;SDS011;13877;18.896;-99.222;2022-07-23T12:10:32;18.75;;;6.13;;
12412;SDS011;13877;18.896;-99.222;2022-07-23T12:13:09;17.75;;;6.20;;
12412;SDS011;13877;18.896;-99.222;2022-07-23T12:15:38;14.57;;;6.05;;
12412;SDS011;13877;18.896;-99.222;2022-07-23T12:18:08;17.85;;;7.07;;
12412;SDS011;13877;18.896;-99.222;2022-07-23T12:20:38;25.33;;;6.50;;
12412;SDS011;13877;18.896;-99.222;2022-07-23T12:23:11;23.73;;;7.18;;
12412;SDS011;13877;18.896;-99.222;2022-07-23T12:25:40;27.60;;;7.22;;
12412;SDS011;13877;18.896;-99.222;2022-07-23T12:33:37;24.60;;;6.47;;
12412;SDS011;13877;18.896;-99.222;2022-07-23T12:36:04;21.02;;;7.15;;
12412;SDS011;13877;18.896;-99.222;2022-07-23T12:38:37;16.63;;;6.65;;
12412;SDS011;13877;18.896;-99.222;2022-07-23T12:41:09;18.52;;;6.80;;
12412;SDS011;13877;18.896;-99.222;2022-07-23T12:43:37;17.83;;;6.90;;
12412;SDS011;13877;18.896;-99.222;2022-07-23T12:46:10;20.63;;;7.60;;
12412;SDS011;13877;18.896;-99.222;2022-07-23T12:51:16;17.92;;;7.32;;
12412;SDS011;13877;18.896;-99.222;2022-07-23T12:53:44;23.58;;;7.28;;
12412;SDS011;13877;18.896;-99.222;2022-07-23T12:56:15;15.45;;;6.40;;
12412;SDS011;13877;18.896;-99.222;2022-07-23T13:01:26;22.42;;;8.10;;
12412;SDS011;13877;18.896;-99.222;2022-07-23T13:06:32;16.08;;;7.25;;
12412;SDS011;13877;18.896;-99.222;2022-07-23T13:09:07;18.85;;;7.72;;
12412;SDS011;13877;18.896;-99.222;2022-07-23T13:11:36;21.38;;;7.47;;
12412;SDS011;13877;18.896;-99.222;2022-07-23T13:14:03;23.38;;;8.13;;
12412;SDS011;13877;18.896;-99.222;2022-07-23T13:16:31;16.35;;;8.15;;
12412;SDS011;13877;18.896;-99.222;2022-07-23T13:18:58;16.42;;;7.85;;
12412;SDS011;13877;18.896;-99.222;2022-07-23T13:21:26;17.23;;;6.97;;
12412;SDS011;13877;18.896;-99.222;2022-07-23T13:23:54;13.70;;;5.65;;
12412;SDS011;13877;18.896;-99.222;2022-07-23T13:26:22;23.67;;;6.63;;
12412;SDS011;13877;18.896;-99.222;2022-07-23T13:28:49;18.00;;;7.38;;
12412;SDS011;13877;18.896;-99.222;2022-07-23T13:31:19;12.70;;;6.05;;
12412;SDS011;13877;18.896;-99.222;2022-07-23T13:33:47;50.25;;;8.52;;
12412;SDS011;13877;18.896;-99.222;2022-07-23T13:36:14;25.25;;;6.60;;
12412;SDS011;13877;18.896;-99.222;2022-07-23T13:38:41;27.60;;;7.15;;
12412;SDS011;13877;18.896;-99.222;2022-07-23T13:41:08;21.60;;;7.70;;
12412;SDS011;13877;18.896;-99.222;2022-07-23T13:43:35;18.33;;;6.78;;
12412;SDS011;13877;18.896;-99.222;2022-07-23T13:46:03;19.33;;;7.22;;
12412;SDS011;13877;18.896;-99.222;2022-07-23T13:48:29;22.95;;;8.18;;
12412;SDS011;13877;18.896;-99.222;2022-07-23T13:50:57;23.55;;;8.05;;
12412;SDS011;13877;18.896;-99.222;2022-07-23T13:53:23;23.63;;;8.15;;
12412;SDS011;13877;18.896;-99.222;2022-07-23T13:55:51;23.77;;;8.90;;
12412;SDS011;13877;18.896;-99.222;2022-07-23T13:58:20;59.58;;;9.30;;
12412;SDS011;13877;18.896;-99.222;2022-07-23T14:00:48;24.52;;;8.10;;
12412;SDS011;13877;18.896;-99.222;2022-07-23T14:03:17;35.88;;;8.23;;
12412;SDS011;13877;18.896;-99.222;2022-07-23T14:05:45;30.90;;;8.40;;
12412;SDS011;13877;18.896;-99.222;2022-07-23T14:08:12;22.08;;;7.45;;
12412;SDS011;13877;18.896;-99.222;2022-07-23T14:10:39;24.45;;;7.38;;
12412;SDS011;13877;18.896;-99.222;2022-07-23T14:13:05;18.92;;;7.95;;
12412;SDS011;13877;18.896;-99.222;2022-07-23T14:15:32;19.75;;;7.47;;
12412;SDS011;13877;18.896;-99.222;2022-07-23T14:17:59;31.02;;;9.35;;
12412;SDS011;13877;18.896;-99.222;2022-07-23T14:20:26;23.95;;;9.10;;
12412;SDS011;13877;18.896;-99.222;2022-07-23T14:22:53;21.95;;;8.13;;
12412;SDS011;13877;18.896;-99.222;2022-07-23T14:25:22;31.90;;;9.52;;
12412;SDS011;13877;18.896;-99.222;2022-07-23T14:27:49;21.10;;;8.95;;
12412;SDS011;13877;18.896;-99.222;2022-07-23T14:30:16;21.23;;;9.13;;
12412;SDS011;13877;18.896;-99.222;2022-07-23T14:32:42;20.38;;;9.02;;
12412;SDS011;13877;18.896;-99.222;2022-07-23T14:35:09;28.17;;;8.70;;
12412;SDS011;13877;18.896;-99.222;2022-07-23T14:37:36;21.10;;;8.30;;
12412;SDS011;13877;18.896;-99.222;2022-07-23T14:40:06;22.20;;;7.47;;
12412;SDS011;13877;18.896;-99.222;2022-07-23T14:42:33;24.38;;;7.47;;
12412;SDS011;13877;18.896;-99.222;2022-07-23T14:45:00;24.92;;;8.57;;
12412;SDS011;13877;18.896;-99.222;2022-07-23T14:47:27;28.35;;;9.57;;
12412;SDS011;13877;18.896;-99.222;2022-07-23T14:49:54;33.28;;;10.65;;
12412;SDS011;13877;18.896;-99.222;2022-07-23T14:52:21;36.35;;;10.25;;
12412;SDS011;13877;18.896;-99.222;2022-07-23T14:54:49;28.85;;;10.43;;
12412;SDS011;13877;18.896;-99.222;2022-07-23T14:57:15;29.00;;;10.55;;
12412;SDS011;13877;18.896;-99.222;2022-07-23T14:59:47;18.33;;;9.57;;
12412;SDS011;13877;18.896;-99.222;2022-07-23T15:02:14;20.73;;;9.27;;
12412;SDS011;13877;18.896;-99.222;2022-07-23T15:04:42;14.20;;;8.25;;
12412;SDS011;13877;18.896;-99.222;2022-07-23T15:07:09;24.83;;;8.60;;
12412;SDS011;13877;18.896;-99.222;2022-07-23T15:09:35;20.15;;;8.55;;
12412;SDS011;13877;18.896;-99.222;2022-07-23T15:12:03;22.50;;;7.57;;
12412;SDS011;13877;18.896;-99.222;2022-07-23T15:14:30;15.88;;;7.88;;
12412;SDS011;13877;18.896;-99.222;2022-07-23T15:16:57;27.65;;;9.48;;
12412;SDS011;13877;18.896;-99.222;2022-07-23T15:19:23;17.70;;;8.20;;
12412;SDS011;13877;18.896;-99.222;2022-07-23T15:21:50;22.42;;;7.40;;
12412;SDS011;13877;18.896;-99.222;2022-07-23T15:24:17;21.25;;;8.48;;
12412;SDS011;13877;18.896;-99.222;2022-07-23T15:26:44;22.55;;;8.68;;
12412;SDS011;13877;18.896;-99.222;2022-07-23T15:29:11;20.95;;;9.45;;
12412;SDS011;13877;18.896;-99.222;2022-07-23T15:31:38;26.98;;;10.30;;